createdAt,value
2022-10-11T00:01:07.027Z,14.70
2022-10-11T00:03:55.324Z,14.70
2022-10-11T00:06:43.787Z,14.60
2022-10-11T00:09:32.238Z,14.50
2022-10-11T00:12:18.943Z,14.50
2022-10-11T00:15:09.298Z,14.50
2022-10-11T00:17:56.551Z,14.50
2022-10-11T00:20:45.256Z,14.50
2022-10-11T00:23:32.384Z,14.40
2022-10-11T00:26:21.220Z,14.50
2022-10-11T00:29:08.275Z,14.50
2022-10-11T00:31:56.206Z,14.50
2022-10-11T00:34:43.275Z,14.60
2022-10-11T00:37:35.263Z,14.60
2022-10-11T00:40:22.313Z,14.70
2022-10-11T00:43:24.254Z,14.70
2022-10-11T00:46:14.143Z,14.70
2022-10-11T00:49:07.220Z,14.70
2022-10-11T00:52:01.862Z,14.60
2022-10-11T00:54:51.199Z,14.60
2022-10-11T00:57:41.758Z,14.70
2022-10-11T01:00:30.228Z,14.60
2022-10-11T01:03:23.054Z,14.70
2022-10-11T01:06:12.233Z,14.60
2022-10-11T01:09:00.156Z,14.60
2022-10-11T01:11:49.268Z,14.50
2022-10-11T01:14:35.886Z,14.40
2022-10-11T01:17:52.224Z,14.40
2022-10-11T01:21:00.813Z,14.30
2022-10-11T01:24:08.599Z,14.30
2022-10-11T01:27:20.701Z,14.30
2022-10-11T01:30:22.662Z,14.30
2022-10-11T01:33:43.691Z,14.30
2022-10-11T01:36:33.804Z,14.20
2022-10-11T01:39:33.019Z,14.20
2022-10-11T01:42:22.209Z,14.00
2022-10-11T01:45:13.813Z,13.80
2022-10-11T01:48:12.182Z,13.70
2022-10-11T01:51:02.137Z,13.70
2022-10-11T01:54:07.706Z,13.70
2022-10-11T01:57:24.789Z,13.70
2022-10-11T02:00:24.607Z,13.80
2022-10-11T02:03:17.437Z,13.80
2022-10-11T02:06:08.689Z,13.80
2022-10-11T02:09:12.300Z,13.70
2022-10-11T02:12:07.202Z,13.70
2022-10-11T02:14:56.495Z,13.80
2022-10-11T02:17:55.391Z,13.80
2022-10-11T02:20:45.069Z,13.80
2022-10-11T02:23:36.650Z,13.80
2022-10-11T02:26:27.602Z,13.80
2022-10-11T02:29:17.438Z,13.70
2022-10-11T02:32:05.821Z,13.70
2022-10-11T02:35:00.678Z,13.70
2022-10-11T02:37:55.528Z,13.70
2022-10-11T02:40:47.827Z,13.70
2022-10-11T02:43:41.534Z,13.70
2022-10-11T02:46:30.627Z,13.70
2022-10-11T02:49:18.630Z,13.70
2022-10-11T02:52:06.597Z,13.80
2022-10-11T02:54:53.438Z,13.80
2022-10-11T02:57:42.213Z,13.80
2022-10-11T03:00:29.068Z,13.80
2022-10-11T03:03:17.207Z,13.70
2022-10-11T03:06:05.210Z,13.70
2022-10-11T03:08:55.154Z,13.60
2022-10-11T03:11:41.874Z,13.60
2022-10-11T03:14:30.197Z,13.60
2022-10-11T03:17:35.674Z,13.70
2022-10-11T03:20:26.178Z,13.70
2022-10-11T03:23:13.281Z,13.70
2022-10-11T03:26:00.425Z,13.70
2022-10-11T03:28:47.354Z,13.60
2022-10-11T03:31:34.350Z,13.60
2022-10-11T03:34:21.225Z,13.50
2022-10-11T03:37:08.008Z,13.40
2022-10-11T03:39:54.756Z,13.20
2022-10-11T03:42:41.717Z,13.20
2022-10-11T03:45:28.572Z,13.20
2022-10-11T03:48:15.419Z,13.10
2022-10-11T03:51:02.135Z,13.10
2022-10-11T03:53:48.950Z,13.10
2022-10-11T03:56:35.713Z,13.10
2022-10-11T03:59:22.512Z,13.10
2022-10-11T04:02:09.379Z,13.10
2022-10-11T04:04:56.224Z,13.20
2022-10-11T04:07:43.045Z,13.30
2022-10-11T04:10:31.195Z,13.40
2022-10-11T04:13:18.258Z,13.50
2022-10-11T04:16:05.792Z,13.40
2022-10-11T04:18:52.811Z,13.30
2022-10-11T04:21:39.629Z,13.20
2022-10-11T04:24:26.550Z,13.20
2022-10-11T04:27:13.333Z,13.20
2022-10-11T04:30:00.096Z,13.20
2022-10-11T04:32:46.871Z,13.30
2022-10-11T04:35:33.768Z,13.30
2022-10-11T04:38:20.520Z,13.30
2022-10-11T04:41:09.281Z,13.30
2022-10-11T04:43:56.288Z,13.30
2022-10-11T04:46:43.053Z,13.30
2022-10-11T04:49:29.893Z,13.30
2022-10-11T04:52:16.696Z,13.40
2022-10-11T04:55:03.913Z,13.30
2022-10-11T04:57:50.757Z,13.20
2022-10-11T05:00:37.535Z,13.20
2022-10-11T05:03:25.252Z,13.20
2022-10-11T05:06:12.636Z,13.30
2022-10-11T05:09:00.674Z,13.40
2022-10-11T05:11:47.557Z,13.50
2022-10-11T05:14:34.435Z,13.50
2022-10-11T05:17:21.301Z,13.50
2022-10-11T05:20:08.574Z,13.50
2022-10-11T05:22:55.396Z,13.50
2022-10-11T05:25:42.313Z,13.50
2022-10-11T05:28:29.725Z,13.50
2022-10-11T05:31:16.957Z,13.50
2022-10-11T05:34:04.037Z,13.50
2022-10-11T05:36:50.791Z,13.60
2022-10-11T05:39:37.625Z,13.60
2022-10-11T05:42:24.399Z,13.70
2022-10-11T05:45:11.224Z,13.70
2022-10-11T05:47:58.115Z,13.80
2022-10-11T05:50:44.943Z,13.70
2022-10-11T05:53:32.272Z,13.70
2022-10-11T05:56:22.024Z,13.70
2022-10-11T05:59:08.986Z,13.70
2022-10-11T06:01:56.020Z,13.70
2022-10-11T06:04:42.920Z,13.70
2022-10-11T06:07:30.147Z,13.70
2022-10-11T06:10:17.368Z,13.70
2022-10-11T06:13:04.428Z,13.70
2022-10-11T06:15:51.226Z,13.70
2022-10-11T06:18:38.237Z,13.70
2022-10-11T06:21:25.303Z,13.70
2022-10-11T06:24:13.086Z,13.70
2022-10-11T06:27:00.408Z,13.80
2022-10-11T06:29:47.157Z,13.80
2022-10-11T06:32:34.086Z,13.80
2022-10-11T06:35:20.977Z,13.90
2022-10-11T06:38:07.876Z,13.90
2022-10-11T06:40:54.696Z,13.90
2022-10-11T06:43:41.464Z,14.00
2022-10-11T06:46:28.674Z,14.10
2022-10-11T06:49:19.320Z,14.10
2022-10-11T06:52:09.684Z,14.10
2022-10-11T06:54:56.497Z,14.20
2022-10-11T06:57:43.267Z,14.20
2022-10-11T07:00:30.230Z,14.30
2022-10-11T07:03:17.119Z,14.30
2022-10-11T07:06:10.825Z,14.40
2022-10-11T07:09:00.361Z,14.50
2022-10-11T07:11:48.872Z,14.60
2022-10-11T07:14:35.711Z,14.60
2022-10-11T07:17:22.543Z,14.70
2022-10-11T07:20:10.051Z,14.70
2022-10-11T07:22:56.782Z,14.80
2022-10-11T07:25:45.099Z,14.80
2022-10-11T07:28:32.043Z,14.90
2022-10-11T07:31:23.027Z,14.90
2022-10-11T07:34:10.648Z,15.00
2022-10-11T07:36:57.496Z,15.00
2022-10-11T07:39:44.234Z,15.10
2022-10-11T07:42:31.016Z,15.20
2022-10-11T07:45:17.803Z,15.20
2022-10-11T07:48:05.066Z,15.30
2022-10-11T07:50:51.829Z,15.30
2022-10-11T07:53:50.276Z,15.30
2022-10-11T07:56:37.912Z,15.40
2022-10-11T07:59:25.135Z,15.50
2022-10-11T08:02:12.969Z,15.50
2022-10-11T08:04:59.799Z,15.70
2022-10-11T08:07:48.727Z,15.80
2022-10-11T08:10:39.694Z,15.80
2022-10-11T08:13:26.793Z,15.70
2022-10-11T08:16:14.137Z,15.80
2022-10-11T08:19:02.986Z,15.70
2022-10-11T08:21:49.960Z,15.70
2022-10-11T08:24:38.491Z,15.70
2022-10-11T08:27:25.460Z,15.80
2022-10-11T08:30:12.881Z,16.00
2022-10-11T08:32:59.812Z,16.30
2022-10-11T08:35:47.315Z,16.50
2022-10-11T08:38:36.605Z,16.80
2022-10-11T08:41:50.962Z,17.00
2022-10-11T08:45:10.589Z,17.20
2022-10-11T08:48:25.380Z,17.40
2022-10-11T08:51:31.327Z,17.60
2022-10-11T08:54:21.420Z,17.70
2022-10-11T08:57:14.873Z,17.70
2022-10-11T09:00:07.745Z,17.60
2022-10-11T09:03:08.573Z,17.50
2022-10-11T09:06:01.232Z,17.50
2022-10-11T09:08:47.963Z,17.50
2022-10-11T09:12:00.692Z,17.50
2022-10-11T09:15:15.448Z,17.40
2022-10-11T09:18:31.486Z,17.40
2022-10-11T09:21:35.112Z,17.60
2022-10-11T09:24:56.084Z,17.70
2022-10-11T09:28:05.108Z,18.10
2022-10-11T09:30:55.489Z,18.50
2022-10-11T09:33:52.110Z,18.70
2022-10-11T09:36:53.331Z,19.00
2022-10-11T09:39:52.094Z,19.10
2022-10-11T09:42:38.860Z,19.10
2022-10-11T09:45:27.071Z,19.10
2022-10-11T09:48:24.636Z,18.90
2022-10-11T09:51:21.409Z,18.90
2022-10-11T09:54:10.476Z,19.00
2022-10-11T09:56:57.491Z,18.90
2022-10-11T09:59:44.303Z,18.80
2022-10-11T10:02:49.677Z,18.50
2022-10-11T10:05:39.688Z,18.30
2022-10-11T10:08:29.543Z,18.10
2022-10-11T10:11:17.923Z,17.90
2022-10-11T10:14:04.716Z,17.90
2022-10-11T10:17:04.923Z,17.90
2022-10-11T10:19:56.123Z,17.80
2022-10-11T10:22:47.148Z,17.70
2022-10-11T10:25:43.658Z,17.70
2022-10-11T10:28:30.963Z,17.70
2022-10-11T10:31:25.086Z,17.70
2022-10-11T10:34:28.185Z,17.70
2022-10-11T10:37:31.075Z,17.80
2022-10-11T10:40:27.584Z,17.90
2022-10-11T10:43:22.050Z,17.80
2022-10-11T10:46:17.997Z,17.70
2022-10-11T10:52:59.096Z,17.30
2022-10-11T10:55:53.113Z,17.20
2022-10-11T10:58:58.981Z,17.20
2022-10-11T11:02:38.606Z,17.20
2022-10-11T11:05:38.933Z,17.10
2022-10-11T11:08:46.037Z,17.10
2022-10-11T11:11:59.211Z,17.20
2022-10-11T11:15:11.066Z,17.40
2022-10-11T11:18:06.933Z,17.60
2022-10-11T11:21:07.088Z,17.70
2022-10-11T11:24:26.315Z,17.60
2022-10-11T11:27:42.047Z,17.60
2022-10-11T11:30:31.631Z,17.60
2022-10-11T11:33:48.921Z,17.90
2022-10-11T11:36:47.187Z,18.00
2022-10-11T11:39:46.074Z,18.10
2022-10-11T11:42:45.097Z,18.40
2022-10-11T11:45:48.064Z,19.00
2022-10-11T11:48:35.493Z,19.20
2022-10-11T11:51:37.136Z,19.00
2022-10-11T11:54:47.439Z,18.60
2022-10-11T11:58:07.455Z,18.20
2022-10-11T12:01:15.343Z,17.80
2022-10-11T12:04:10.123Z,17.60
2022-10-11T12:07:16.241Z,17.30
2022-10-11T12:10:50.096Z,17.20
2022-10-11T12:13:39.075Z,17.10
2022-10-11T12:16:29.029Z,17.00
2022-10-11T12:19:15.857Z,17.00
2022-10-11T12:22:29.044Z,17.10
2022-10-11T12:25:18.521Z,17.10
2022-10-11T12:28:38.080Z,17.10
2022-10-11T12:31:34.083Z,17.00
2022-10-11T12:34:22.406Z,17.00
2022-10-11T12:37:18.841Z,16.90
2022-10-11T12:40:43.064Z,17.00
2022-10-11T12:43:36.373Z,16.90
2022-10-11T12:46:31.028Z,16.80
2022-10-11T12:49:31.141Z,16.80
2022-10-11T12:52:19.042Z,16.80
2022-10-11T12:55:26.059Z,16.90
2022-10-11T12:58:26.070Z,17.10
2022-10-11T13:01:17.661Z,17.10
2022-10-11T13:04:10.027Z,17.10
2022-10-11T13:07:06.612Z,17.00
2022-10-11T13:09:57.102Z,17.00
2022-10-11T13:12:47.499Z,16.90
2022-10-11T13:15:38.056Z,16.90
2022-10-11T13:18:26.144Z,16.90
2022-10-11T13:21:38.048Z,17.00
2022-10-11T13:24:26.689Z,17.10
2022-10-11T13:27:28.034Z,17.00
2022-10-11T13:30:27.160Z,17.00
2022-10-11T13:33:22.997Z,17.00
2022-10-11T13:36:17.612Z,17.00
2022-10-11T13:39:06.096Z,17.00
2022-10-11T13:41:53.184Z,17.00
2022-10-11T13:44:43.006Z,17.00
2022-10-11T13:47:31.939Z,17.00
2022-10-11T13:50:25.030Z,17.10
2022-10-11T13:53:11.718Z,17.10
2022-10-11T13:56:08.343Z,17.10
2022-10-11T13:58:55.702Z,17.10
2022-10-11T14:01:47.088Z,17.10
2022-10-11T14:04:41.246Z,17.10
2022-10-11T14:07:40.033Z,17.00
2022-10-11T14:10:27.368Z,16.90
2022-10-11T14:13:42.041Z,16.90
2022-10-11T14:16:30.419Z,16.90
2022-10-11T14:19:22.014Z,16.90
2022-10-11T14:22:17.862Z,16.90
2022-10-11T14:25:06.019Z,16.90
2022-10-11T14:27:54.350Z,16.90
2022-10-11T14:30:46.018Z,16.80
2022-10-11T14:33:33.487Z,16.80
2022-10-11T14:36:24.012Z,16.70
2022-10-11T14:39:16.296Z,16.60
2022-10-11T14:42:05.027Z,16.50
2022-10-11T14:44:51.818Z,16.50
2022-10-11T14:47:43.076Z,16.50
2022-10-11T14:50:51.086Z,16.50
2022-10-11T14:53:40.903Z,16.50
2022-10-11T14:56:27.861Z,16.50
2022-10-11T14:59:16.615Z,16.50
2022-10-11T15:02:06.221Z,16.40
2022-10-11T15:04:52.982Z,16.50
2022-10-11T15:07:39.762Z,16.50
2022-10-11T15:10:29.987Z,16.50
2022-10-11T15:13:16.824Z,16.50
2022-10-11T15:16:05.262Z,16.50
2022-10-11T15:18:52.683Z,16.40
2022-10-11T15:21:42.010Z,16.40
2022-10-11T15:24:28.720Z,16.40
2022-10-11T15:27:19.063Z,16.40
2022-10-11T15:30:25.525Z,16.30
2022-10-11T15:33:14.001Z,16.30
2022-10-11T15:36:02.178Z,16.30
2022-10-11T15:38:51.145Z,16.30
2022-10-11T15:41:37.901Z,16.20
2022-10-11T15:44:25.994Z,16.20
2022-10-11T15:47:12.768Z,16.10
2022-10-11T15:50:00.988Z,16.10
2022-10-11T15:52:47.867Z,16.10
2022-10-11T15:55:40.044Z,16.00
2022-10-11T15:58:28.320Z,16.00
2022-10-11T16:01:21.098Z,15.90
2022-10-11T16:04:08.034Z,15.90
2022-10-11T16:06:56.128Z,15.90
2022-10-11T16:09:42.880Z,15.80
2022-10-11T16:12:31.027Z,15.80
2022-10-11T16:15:17.831Z,15.80
2022-10-11T16:18:08.267Z,15.70
2022-10-11T16:20:55.097Z,15.70
2022-10-11T16:23:44.031Z,15.70
2022-10-11T16:26:31.588Z,15.70
2022-10-11T16:29:19.966Z,15.70
2022-10-11T16:32:06.873Z,15.70
2022-10-11T16:34:55.022Z,15.70
2022-10-11T16:37:42.215Z,15.70
2022-10-11T16:40:32.001Z,15.60
2022-10-11T16:43:18.838Z,15.60
2022-10-11T16:46:07.441Z,15.50
2022-10-11T16:48:58.235Z,15.50
2022-10-11T16:51:47.013Z,15.50
2022-10-11T16:54:33.820Z,15.40
2022-10-11T16:57:24.187Z,15.40
2022-10-11T17:00:12.248Z,15.30
2022-10-11T17:03:01.022Z,15.30
2022-10-11T17:05:48.530Z,15.20
2022-10-11T17:08:37.033Z,15.20
2022-10-11T17:11:24.156Z,15.20
2022-10-11T17:14:14.979Z,15.20
2022-10-11T17:17:03.058Z,15.20
2022-10-11T17:19:51.956Z,15.10
2022-10-11T17:22:38.696Z,15.10
2022-10-11T17:25:26.974Z,15.20
2022-10-11T17:28:39.077Z,15.20
2022-10-11T17:31:27.980Z,15.10
2022-10-11T17:34:16.328Z,15.10
2022-10-11T17:37:04.991Z,15.10
2022-10-11T17:39:51.801Z,15.00
2022-10-11T17:42:39.977Z,15.00
2022-10-11T17:45:26.734Z,15.00
2022-10-11T17:48:14.989Z,15.00
2022-10-11T17:51:06.500Z,15.00
2022-10-11T17:53:56.985Z,15.00
2022-10-11T17:56:43.759Z,14.90
2022-10-11T17:59:33.969Z,14.90
2022-10-11T18:02:20.728Z,14.90
2022-10-11T18:05:09.977Z,15.00
2022-10-11T18:07:56.845Z,15.00
2022-10-11T18:10:47.569Z,14.90
2022-10-11T18:13:34.665Z,14.90
2022-10-11T18:16:25.956Z,14.90
2022-10-11T18:19:13.886Z,14.90
2022-10-11T18:22:05.971Z,14.90
2022-10-11T18:24:53.906Z,14.90
2022-10-11T18:27:41.992Z,14.90
2022-10-11T18:30:28.744Z,14.80
2022-10-11T18:33:16.370Z,14.80
2022-10-11T18:36:05.662Z,14.80
2022-10-11T18:38:55.474Z,14.80
2022-10-11T18:41:44.574Z,14.80
2022-10-11T18:44:32.478Z,14.80
2022-10-11T18:47:19.573Z,14.80
2022-10-11T18:50:07.946Z,14.80
2022-10-11T18:52:54.728Z,14.80
2022-10-11T18:55:41.581Z,14.80
2022-10-11T18:58:32.819Z,14.70
2022-10-11T19:01:38.694Z,14.70
2022-10-11T19:04:28.576Z,14.80
2022-10-11T19:07:17.003Z,14.80
2022-10-11T19:10:04.521Z,14.70
2022-10-11T19:12:52.943Z,14.70
2022-10-11T19:15:39.752Z,14.70
2022-10-11T19:18:27.933Z,14.70
2022-10-11T19:21:14.853Z,14.80
2022-10-11T19:24:02.946Z,14.80
2022-10-11T19:26:50.429Z,14.70
2022-10-11T19:29:38.932Z,14.70
2022-10-11T19:32:25.717Z,14.70
2022-10-11T19:35:19.035Z,14.70
2022-10-11T19:38:06.615Z,14.60
2022-10-11T19:40:54.925Z,14.60
2022-10-11T19:43:42.612Z,14.60
2022-10-11T19:49:37.671Z,14.60
2022-10-11T19:52:25.930Z,14.60
2022-10-11T19:55:12.714Z,14.60
2022-10-11T19:58:08.057Z,14.60
2022-10-11T20:01:04.092Z,14.60
2022-10-11T20:04:04.926Z,14.60
2022-10-11T20:06:51.775Z,14.60
2022-10-11T20:09:39.930Z,14.60
2022-10-11T20:12:29.391Z,14.60
2022-10-11T20:15:17.925Z,14.60
2022-10-11T20:18:04.961Z,14.60
2022-10-11T20:20:57.938Z,14.60
2022-10-11T20:23:46.464Z,14.60
2022-10-11T20:26:35.939Z,14.60
2022-10-11T20:29:25.264Z,14.60
2022-10-11T20:32:13.933Z,14.60
2022-10-11T20:35:00.774Z,14.60
2022-10-11T20:37:48.912Z,14.50
2022-10-11T20:40:40.181Z,14.50
2022-10-11T20:43:28.923Z,14.50
2022-10-11T20:46:18.640Z,14.50
2022-10-11T20:49:09.929Z,14.50
2022-10-11T20:51:56.746Z,14.50
2022-10-11T20:54:44.910Z,14.60
2022-10-11T20:57:31.983Z,14.60
2022-10-11T21:00:20.915Z,14.60
2022-10-11T21:03:08.329Z,14.50
2022-10-11T21:06:02.937Z,14.50
2022-10-11T21:08:49.711Z,14.50
2022-10-11T21:11:37.940Z,14.40
2022-10-11T21:14:24.785Z,14.40
2022-10-11T21:17:12.960Z,14.40
2022-10-11T21:20:01.912Z,14.50
2022-10-11T21:22:49.900Z,14.40
2022-10-11T21:25:37.365Z,14.40
2022-10-11T21:28:25.977Z,14.30
2022-10-11T21:31:15.344Z,14.30
2022-10-11T21:34:04.903Z,14.20
2022-10-11T21:36:51.765Z,14.20
2022-10-11T21:39:39.908Z,14.20
2022-10-11T21:42:29.556Z,14.10
2022-10-11T21:45:17.928Z,14.10
2022-10-11T21:48:05.129Z,14.00
2022-10-11T21:50:54.939Z,14.00
2022-10-11T21:53:41.829Z,13.90
2022-10-11T21:56:30.924Z,13.90
2022-10-11T21:59:17.713Z,14.00
2022-10-11T22:02:05.977Z,14.00
2022-10-11T22:04:52.749Z,13.90
2022-10-11T22:07:40.880Z,13.90
2022-10-11T22:10:27.702Z,13.90
2022-10-11T22:13:15.888Z,13.90
2022-10-11T22:16:07.712Z,13.80
2022-10-11T22:18:55.913Z,13.80
2022-10-11T22:21:45.045Z,13.80
2022-10-11T22:24:33.892Z,13.80
2022-10-11T22:27:20.721Z,13.80
2022-10-11T22:30:09.892Z,13.80
2022-10-11T22:32:57.417Z,13.80
2022-10-11T22:35:45.955Z,13.80
2022-10-11T22:38:32.844Z,13.80
2022-10-11T22:41:20.905Z,13.80
2022-10-11T22:44:07.753Z,13.80
2022-10-11T22:46:55.877Z,13.80
2022-10-11T22:49:42.767Z,13.80
2022-10-11T22:52:30.878Z,13.80
2022-10-11T22:55:20.139Z,13.80
2022-10-11T22:58:08.847Z,13.80
2022-10-11T23:00:55.586Z,13.80
2022-10-11T23:03:43.945Z,13.80
2022-10-11T23:06:30.819Z,13.80
2022-10-11T23:09:18.875Z,13.80
2022-10-11T23:12:05.960Z,13.80
2022-10-11T23:14:53.952Z,13.90
2022-10-11T23:17:40.870Z,13.80
2022-10-11T23:20:28.956Z,13.90
2022-10-11T23:23:15.801Z,13.90
2022-10-11T23:26:14.866Z,13.90
2022-10-11T23:29:01.619Z,13.90
2022-10-11T23:31:49.937Z,14.00
2022-10-11T23:34:37.563Z,13.90
2022-10-11T23:37:25.843Z,13.90
2022-10-11T23:40:12.595Z,13.90
2022-10-11T23:43:00.882Z,13.90
2022-10-11T23:45:47.616Z,13.90
2022-10-11T23:48:35.877Z,13.90
2022-10-11T23:51:22.647Z,13.90
2022-10-11T23:54:10.895Z,13.90
2022-10-11T23:56:57.629Z,13.90
2022-10-11T23:59:45.874Z,13.90
